sensor_id;sensor_type;location;lat;lon;timestamp;temperature;humidity
7736;DHT22;3911;48.830;9.072;2022-07-05T00:00:46;24.20;48.20
7736;DHT22;3911;48.830;9.072;2022-07-05T00:03:12;24.00;48.50
7736;DHT22;3911;48.830;9.072;2022-07-05T00:05:39;24.20;48.20
7736;DHT22;3911;48.830;9.072;2022-07-05T00:08:06;24.20;48.10
7736;DHT22;3911;48.830;9.072;2022-07-05T00:10:34;24.10;48.30
7736;DHT22;3911;48.830;9.072;2022-07-05T00:13:01;24.20;48.10
7736;DHT22;3911;48.830;9.072;2022-07-05T00:15:27;24.20;48.10
7736;DHT22;3911;48.830;9.072;2022-07-05T00:17:55;24.10;48.30
7736;DHT22;3911;48.830;9.072;2022-07-05T00:20:22;24.00;48.40
7736;DHT22;3911;48.830;9.072;2022-07-05T00:22:49;24.00;48.30
7736;DHT22;3911;48.830;9.072;2022-07-05T00:25:16;23.60;49.40
7736;DHT22;3911;48.830;9.072;2022-07-05T00:27:43;23.70;49.10
7736;DHT22;3911;48.830;9.072;2022-07-05T00:30:11;23.70;49.10
7736;DHT22;3911;48.830;9.072;2022-07-05T00:32:39;23.80;49.00
7736;DHT22;3911;48.830;9.072;2022-07-05T00:35:06;23.90;48.90
7736;DHT22;3911;48.830;9.072;2022-07-05T00:37:33;23.90;48.80
7736;DHT22;3911;48.830;9.072;2022-07-05T00:40:01;23.60;49.20
7736;DHT22;3911;48.830;9.072;2022-07-05T00:42:27;23.60;49.20
7736;DHT22;3911;48.830;9.072;2022-07-05T00:44:54;23.40;49.70
7736;DHT22;3911;48.830;9.072;2022-07-05T00:47:21;23.40;49.90
7736;DHT22;3911;48.830;9.072;2022-07-05T00:49:48;23.30;49.40
7736;DHT22;3911;48.830;9.072;2022-07-05T00:52:15;23.40;49.90
7736;DHT22;3911;48.830;9.072;2022-07-05T00:54:43;23.30;49.90
7736;DHT22;3911;48.830;9.072;2022-07-05T00:57:10;23.50;49.40
7736;DHT22;3911;48.830;9.072;2022-07-05T00:59:37;23.70;49.10
7736;DHT22;3911;48.830;9.072;2022-07-05T01:02:05;23.60;49.40
7736;DHT22;3911;48.830;9.072;2022-07-05T01:04:32;23.40;49.70
7736;DHT22;3911;48.830;9.072;2022-07-05T01:06:59;23.40;49.60
7736;DHT22;3911;48.830;9.072;2022-07-05T01:09:25;23.50;49.20
7736;DHT22;3911;48.830;9.072;2022-07-05T01:11:52;23.60;49.10
7736;DHT22;3911;48.830;9.072;2022-07-05T01:14:20;23.60;48.90
7736;DHT22;3911;48.830;9.072;2022-07-05T01:16:46;23.60;48.80
7736;DHT22;3911;48.830;9.072;2022-07-05T01:19:13;23.40;49.50
7736;DHT22;3911;48.830;9.072;2022-07-05T01:21:40;23.20;49.90
7736;DHT22;3911;48.830;9.072;2022-07-05T01:24:07;23.00;50.20
7736;DHT22;3911;48.830;9.072;2022-07-05T01:26:33;23.00;50.20
7736;DHT22;3911;48.830;9.072;2022-07-05T01:29:00;23.10;50.20
7736;DHT22;3911;48.830;9.072;2022-07-05T01:31:27;23.10;50.20
7736;DHT22;3911;48.830;9.072;2022-07-05T01:33:54;23.10;50.10
7736;DHT22;3911;48.830;9.072;2022-07-05T01:36:20;23.10;50.00
7736;DHT22;3911;48.830;9.072;2022-07-05T01:38:49;23.00;50.50
7736;DHT22;3911;48.830;9.072;2022-07-05T01:41:16;22.90;50.40
7736;DHT22;3911;48.830;9.072;2022-07-05T01:43:42;22.90;50.40
7736;DHT22;3911;48.830;9.072;2022-07-05T01:46:09;23.10;50.10
7736;DHT22;3911;48.830;9.072;2022-07-05T01:48:37;23.00;50.20
7736;DHT22;3911;48.830;9.072;2022-07-05T01:51:05;22.90;50.50
7736;DHT22;3911;48.830;9.072;2022-07-05T01:53:32;22.90;50.40
7736;DHT22;3911;48.830;9.072;2022-07-05T01:55:58;23.00;50.10
7736;DHT22;3911;48.830;9.072;2022-07-05T01:58:25;22.90;50.70
7736;DHT22;3911;48.830;9.072;2022-07-05T02:00:53;22.90;50.60
7736;DHT22;3911;48.830;9.072;2022-07-05T02:03:20;22.90;50.50
7736;DHT22;3911;48.830;9.072;2022-07-05T02:05:46;22.90;50.50
7736;DHT22;3911;48.830;9.072;2022-07-05T02:08:13;22.90;50.60
7736;DHT22;3911;48.830;9.072;2022-07-05T02:10:40;22.90;50.50
7736;DHT22;3911;48.830;9.072;2022-07-05T02:13:07;22.80;50.60
7736;DHT22;3911;48.830;9.072;2022-07-05T02:15:35;22.70;50.60
7736;DHT22;3911;48.830;9.072;2022-07-05T02:18:01;22.70;50.50
7736;DHT22;3911;48.830;9.072;2022-07-05T02:20:28;22.70;50.60
7736;DHT22;3911;48.830;9.072;2022-07-05T02:22:55;22.80;50.20
7736;DHT22;3911;48.830;9.072;2022-07-05T02:25:22;22.70;50.70
7736;DHT22;3911;48.830;9.072;2022-07-05T02:27:50;22.70;50.80
7736;DHT22;3911;48.830;9.072;2022-07-05T02:30:17;22.70;50.60
7736;DHT22;3911;48.830;9.072;2022-07-05T02:32:44;22.60;50.50
7736;DHT22;3911;48.830;9.072;2022-07-05T02:35:11;22.60;50.60
7736;DHT22;3911;48.830;9.072;2022-07-05T02:37:38;22.60;50.60
7736;DHT22;3911;48.830;9.072;2022-07-05T02:40:09;22.60;50.60
7736;DHT22;3911;48.830;9.072;2022-07-05T02:42:36;22.60;50.60
7736;DHT22;3911;48.830;9.072;2022-07-05T02:45:03;22.60;50.60
7736;DHT22;3911;48.830;9.072;2022-07-05T02:47:30;22.60;50.50
7736;DHT22;3911;48.830;9.072;2022-07-05T02:49:58;22.60;50.60
7736;DHT22;3911;48.830;9.072;2022-07-05T02:52:25;22.50;50.60
7736;DHT22;3911;48.830;9.072;2022-07-05T02:54:52;22.50;50.70
7736;DHT22;3911;48.830;9.072;2022-07-05T02:57:19;22.50;50.60
7736;DHT22;3911;48.830;9.072;2022-07-05T02:59:46;22.50;50.60
7736;DHT22;3911;48.830;9.072;2022-07-05T03:02:13;22.40;50.50
7736;DHT22;3911;48.830;9.072;2022-07-05T03:04:39;22.40;50.50
7736;DHT22;3911;48.830;9.072;2022-07-05T03:07:07;22.40;50.40
7736;DHT22;3911;48.830;9.072;2022-07-05T03:09:34;22.40;50.50
7736;DHT22;3911;48.830;9.072;2022-07-05T03:12:01;22.40;50.60
7736;DHT22;3911;48.830;9.072;2022-07-05T03:14:28;22.30;50.50
7736;DHT22;3911;48.830;9.072;2022-07-05T03:16:55;22.30;50.60
7736;DHT22;3911;48.830;9.072;2022-07-05T03:19:21;22.30;50.60
7736;DHT22;3911;48.830;9.072;2022-07-05T03:21:48;22.30;50.60
7736;DHT22;3911;48.830;9.072;2022-07-05T03:24:14;22.30;50.50
7736;DHT22;3911;48.830;9.072;2022-07-05T03:26:42;22.40;50.60
7736;DHT22;3911;48.830;9.072;2022-07-05T03:29:09;22.30;50.40
7736;DHT22;3911;48.830;9.072;2022-07-05T03:31:36;22.30;50.40
7736;DHT22;3911;48.830;9.072;2022-07-05T03:34:03;22.30;50.30
7736;DHT22;3911;48.830;9.072;2022-07-05T03:36:30;22.40;50.20
7736;DHT22;3911;48.830;9.072;2022-07-05T03:38:56;22.40;50.40
7736;DHT22;3911;48.830;9.072;2022-07-05T03:41:24;22.30;50.30
7736;DHT22;3911;48.830;9.072;2022-07-05T03:43:51;22.30;50.20
7736;DHT22;3911;48.830;9.072;2022-07-05T03:46:18;22.40;49.90
7736;DHT22;3911;48.830;9.072;2022-07-05T03:48:46;22.30;50.00
7736;DHT22;3911;48.830;9.072;2022-07-05T03:51:12;22.30;50.00
7736;DHT22;3911;48.830;9.072;2022-07-05T03:53:39;22.40;49.90
7736;DHT22;3911;48.830;9.072;2022-07-05T03:56:05;22.40;50.10
7736;DHT22;3911;48.830;9.072;2022-07-05T03:58:32;22.40;50.00
7736;DHT22;3911;48.830;9.072;2022-07-05T04:00:59;22.40;50.00
7736;DHT22;3911;48.830;9.072;2022-07-05T04:03:25;22.30;50.10
7736;DHT22;3911;48.830;9.072;2022-07-05T04:05:52;22.50;49.70
7736;DHT22;3911;48.830;9.072;2022-07-05T04:08:18;22.70;49.20
7736;DHT22;3911;48.830;9.072;2022-07-05T04:10:46;23.20;48.00
7736;DHT22;3911;48.830;9.072;2022-07-05T04:13:13;22.70;49.10
7736;DHT22;3911;48.830;9.072;2022-07-05T04:15:41;22.40;49.50
7736;DHT22;3911;48.830;9.072;2022-07-05T04:18:08;22.40;49.90
7736;DHT22;3911;48.830;9.072;2022-07-05T04:20:35;22.30;49.80
7736;DHT22;3911;48.830;9.072;2022-07-05T04:23:02;22.30;49.80
7736;DHT22;3911;48.830;9.072;2022-07-05T04:25:28;22.40;50.10
7736;DHT22;3911;48.830;9.072;2022-07-05T04:27:55;22.50;49.80
7736;DHT22;3911;48.830;9.072;2022-07-05T04:30:23;22.50;49.90
7736;DHT22;3911;48.830;9.072;2022-07-05T04:32:48;22.40;49.90
7736;DHT22;3911;48.830;9.072;2022-07-05T04:35:16;22.40;49.70
7736;DHT22;3911;48.830;9.072;2022-07-05T04:37:42;22.40;49.70
7736;DHT22;3911;48.830;9.072;2022-07-05T04:40:11;22.40;49.50
7736;DHT22;3911;48.830;9.072;2022-07-05T04:42:37;22.40;49.50
7736;DHT22;3911;48.830;9.072;2022-07-05T04:45:06;22.30;49.70
7736;DHT22;3911;48.830;9.072;2022-07-05T04:47:33;22.30;49.70
7736;DHT22;3911;48.830;9.072;2022-07-05T04:50:00;22.60;49.30
7736;DHT22;3911;48.830;9.072;2022-07-05T04:52:27;22.40;49.60
7736;DHT22;3911;48.830;9.072;2022-07-05T04:54:54;22.50;49.60
7736;DHT22;3911;48.830;9.072;2022-07-05T04:57:21;22.40;49.50
7736;DHT22;3911;48.830;9.072;2022-07-05T04:59:48;22.50;49.60
7736;DHT22;3911;48.830;9.072;2022-07-05T05:02:14;22.40;49.70
7736;DHT22;3911;48.830;9.072;2022-07-05T05:04:41;22.40;49.50
7736;DHT22;3911;48.830;9.072;2022-07-05T05:07:07;22.60;49.20
7736;DHT22;3911;48.830;9.072;2022-07-05T05:09:35;22.40;49.60
7736;DHT22;3911;48.830;9.072;2022-07-05T05:12:02;22.40;49.60
7736;DHT22;3911;48.830;9.072;2022-07-05T05:14:28;22.50;49.40
7736;DHT22;3911;48.830;9.072;2022-07-05T05:16:56;22.60;49.70
7736;DHT22;3911;48.830;9.072;2022-07-05T05:19:23;22.50;49.20
7736;DHT22;3911;48.830;9.072;2022-07-05T05:21:50;22.60;48.90
7736;DHT22;3911;48.830;9.072;2022-07-05T05:24:18;22.70;48.90
7736;DHT22;3911;48.830;9.072;2022-07-05T05:26:45;22.50;49.00
7736;DHT22;3911;48.830;9.072;2022-07-05T05:29:12;22.60;49.10
7736;DHT22;3911;48.830;9.072;2022-07-05T05:31:38;22.50;49.00
7736;DHT22;3911;48.830;9.072;2022-07-05T05:34:05;22.50;49.10
7736;DHT22;3911;48.830;9.072;2022-07-05T05:36:31;22.50;49.20
7736;DHT22;3911;48.830;9.072;2022-07-05T05:38:58;22.60;49.30
7736;DHT22;3911;48.830;9.072;2022-07-05T05:41:25;22.70;49.10
7736;DHT22;3911;48.830;9.072;2022-07-05T05:43:53;22.70;49.10
7736;DHT22;3911;48.830;9.072;2022-07-05T05:46:20;22.80;49.20
7736;DHT22;3911;48.830;9.072;2022-07-05T05:48:48;22.70;49.00
7736;DHT22;3911;48.830;9.072;2022-07-05T05:51:14;22.70;49.00
7736;DHT22;3911;48.830;9.072;2022-07-05T05:53:41;22.90;48.90
7736;DHT22;3911;48.830;9.072;2022-07-05T05:56:07;23.30;48.10
7736;DHT22;3911;48.830;9.072;2022-07-05T05:58:35;22.90;48.50
7736;DHT22;3911;48.830;9.072;2022-07-05T06:01:02;22.80;48.20
7736;DHT22;3911;48.830;9.072;2022-07-05T06:03:29;22.80;48.40
7736;DHT22;3911;48.830;9.072;2022-07-05T06:05:56;22.80;48.40
7736;DHT22;3911;48.830;9.072;2022-07-05T06:08:23;22.80;47.80
7736;DHT22;3911;48.830;9.072;2022-07-05T06:10:49;22.90;47.50
7736;DHT22;3911;48.830;9.072;2022-07-05T06:13:16;23.00;47.60
7736;DHT22;3911;48.830;9.072;2022-07-05T06:15:42;23.00;47.70
7736;DHT22;3911;48.830;9.072;2022-07-05T06:18:09;23.50;47.00
7736;DHT22;3911;48.830;9.072;2022-07-05T06:20:36;23.30;46.90
7736;DHT22;3911;48.830;9.072;2022-07-05T06:23:03;23.40;46.90
7736;DHT22;3911;48.830;9.072;2022-07-05T06:25:29;23.50;46.00
7736;DHT22;3911;48.830;9.072;2022-07-05T06:27:57;23.50;46.00
7736;DHT22;3911;48.830;9.072;2022-07-05T06:30:24;23.50;45.70
7736;DHT22;3911;48.830;9.072;2022-07-05T06:32:49;23.30;46.10
7736;DHT22;3911;48.830;9.072;2022-07-05T06:35:16;23.30;46.90
7736;DHT22;3911;48.830;9.072;2022-07-05T06:37:45;23.30;46.60
7736;DHT22;3911;48.830;9.072;2022-07-05T06:40:12;24.00;45.70
7736;DHT22;3911;48.830;9.072;2022-07-05T06:42:38;24.00;45.60
7736;DHT22;3911;48.830;9.072;2022-07-05T06:45:06;24.20;46.40
7736;DHT22;3911;48.830;9.072;2022-07-05T06:47:32;24.30;46.80
7736;DHT22;3911;48.830;9.072;2022-07-05T06:49:59;24.40;47.10
7736;DHT22;3911;48.830;9.072;2022-07-05T06:52:25;24.50;47.10
7736;DHT22;3911;48.830;9.072;2022-07-05T06:54:53;24.70;47.00
7736;DHT22;3911;48.830;9.072;2022-07-05T06:57:20;24.80;46.90
7736;DHT22;3911;48.830;9.072;2022-07-05T06:59:48;24.80;46.90
7736;DHT22;3911;48.830;9.072;2022-07-05T07:02:14;24.80;46.90
7736;DHT22;3911;48.830;9.072;2022-07-05T07:04:41;24.80;46.90
7736;DHT22;3911;48.830;9.072;2022-07-05T07:07:07;24.90;46.90
7736;DHT22;3911;48.830;9.072;2022-07-05T07:09:40;24.90;46.80
7736;DHT22;3911;48.830;9.072;2022-07-05T07:12:08;24.90;46.90
7736;DHT22;3911;48.830;9.072;2022-07-05T07:14:34;24.90;46.80
7736;DHT22;3911;48.830;9.072;2022-07-05T07:17:01;24.90;47.00
7736;DHT22;3911;48.830;9.072;2022-07-05T07:19:27;25.00;47.30
7736;DHT22;3911;48.830;9.072;2022-07-05T07:21:55;25.00;47.30
7736;DHT22;3911;48.830;9.072;2022-07-05T07:24:22;25.00;47.20
7736;DHT22;3911;48.830;9.072;2022-07-05T07:26:49;25.00;47.20
7736;DHT22;3911;48.830;9.072;2022-07-05T07:29:22;25.20;47.30
7736;DHT22;3911;48.830;9.072;2022-07-05T07:31:48;25.10;47.20
7736;DHT22;3911;48.830;9.072;2022-07-05T07:34:16;25.10;47.50
7736;DHT22;3911;48.830;9.072;2022-07-05T07:36:42;25.10;47.50
7736;DHT22;3911;48.830;9.072;2022-07-05T07:39:09;25.20;47.60
7736;DHT22;3911;48.830;9.072;2022-07-05T07:41:37;25.20;47.40
7736;DHT22;3911;48.830;9.072;2022-07-05T07:44:03;25.20;47.40
7736;DHT22;3911;48.830;9.072;2022-07-05T07:46:30;25.20;47.40
7736;DHT22;3911;48.830;9.072;2022-07-05T07:48:58;25.30;47.50
7736;DHT22;3911;48.830;9.072;2022-07-05T07:51:25;25.30;47.50
7736;DHT22;3911;48.830;9.072;2022-07-05T07:53:52;25.30;47.50
7736;DHT22;3911;48.830;9.072;2022-07-05T07:56:19;24.90;44.10
7736;DHT22;3911;48.830;9.072;2022-07-05T07:58:47;25.00;44.20
7736;DHT22;3911;48.830;9.072;2022-07-05T08:01:14;24.80;44.30
7736;DHT22;3911;48.830;9.072;2022-07-05T08:03:42;24.80;43.40
7736;DHT22;3911;48.830;9.072;2022-07-05T08:06:09;24.80;43.40
7736;DHT22;3911;48.830;9.072;2022-07-05T08:08:35;24.80;43.80
7736;DHT22;3911;48.830;9.072;2022-07-05T08:11:01;24.70;43.70
7736;DHT22;3911;48.830;9.072;2022-07-05T08:13:29;24.80;44.00
7736;DHT22;3911;48.830;9.072;2022-07-05T08:15:56;24.90;44.10
7736;DHT22;3911;48.830;9.072;2022-07-05T08:18:23;25.10;44.20
7736;DHT22;3911;48.830;9.072;2022-07-05T08:20:56;25.10;44.20
7736;DHT22;3911;48.830;9.072;2022-07-05T08:23:28;25.20;44.60
7736;DHT22;3911;48.830;9.072;2022-07-05T08:25:55;25.20;44.60
7736;DHT22;3911;48.830;9.072;2022-07-05T08:28:23;25.20;44.50
7736;DHT22;3911;48.830;9.072;2022-07-05T08:30:50;25.10;44.20
7736;DHT22;3911;48.830;9.072;2022-07-05T08:33:17;25.10;44.20
7736;DHT22;3911;48.830;9.072;2022-07-05T08:35:45;25.10;43.70
7736;DHT22;3911;48.830;9.072;2022-07-05T08:38:11;25.10;43.70
7736;DHT22;3911;48.830;9.072;2022-07-05T08:40:39;24.90;43.80
7736;DHT22;3911;48.830;9.072;2022-07-05T08:43:05;24.90;43.80
7736;DHT22;3911;48.830;9.072;2022-07-05T08:45:32;24.90;44.30
7736;DHT22;3911;48.830;9.072;2022-07-05T08:47:59;25.00;44.40
7736;DHT22;3911;48.830;9.072;2022-07-05T08:50:26;24.90;43.70
7736;DHT22;3911;48.830;9.072;2022-07-05T08:52:53;24.90;43.70
7736;DHT22;3911;48.830;9.072;2022-07-05T08:55:21;24.90;43.80
7736;DHT22;3911;48.830;9.072;2022-07-05T08:57:47;24.90;43.70
7736;DHT22;3911;48.830;9.072;2022-07-05T09:00:14;25.00;43.40
7736;DHT22;3911;48.830;9.072;2022-07-05T09:02:41;24.90;43.30
7736;DHT22;3911;48.830;9.072;2022-07-05T09:05:10;25.10;44.50
7736;DHT22;3911;48.830;9.072;2022-07-05T09:07:36;25.10;44.30
7736;DHT22;3911;48.830;9.072;2022-07-05T09:10:04;25.20;44.80
7736;DHT22;3911;48.830;9.072;2022-07-05T09:12:31;25.20;44.80
7736;DHT22;3911;48.830;9.072;2022-07-05T09:14:58;25.20;45.40
7736;DHT22;3911;48.830;9.072;2022-07-05T09:17:25;25.20;45.30
7736;DHT22;3911;48.830;9.072;2022-07-05T09:20:05;25.20;45.20
7736;DHT22;3911;48.830;9.072;2022-07-05T09:22:48;25.30;45.50
7736;DHT22;3911;48.830;9.072;2022-07-05T09:25:19;25.30;45.20
7736;DHT22;3911;48.830;9.072;2022-07-05T09:27:47;25.40;45.20
7736;DHT22;3911;48.830;9.072;2022-07-05T09:32:47;25.40;45.10
7736;DHT22;3911;48.830;9.072;2022-07-05T09:35:20;25.40;45.50
7736;DHT22;3911;48.830;9.072;2022-07-05T09:37:46;25.50;44.80
7736;DHT22;3911;48.830;9.072;2022-07-05T09:40:13;25.40;43.30
7736;DHT22;3911;48.830;9.072;2022-07-05T09:42:40;25.40;42.50
7736;DHT22;3911;48.830;9.072;2022-07-05T09:45:07;25.40;42.30
7736;DHT22;3911;48.830;9.072;2022-07-05T09:47:35;25.40;42.20
7736;DHT22;3911;48.830;9.072;2022-07-05T09:50:03;25.50;42.00
7736;DHT22;3911;48.830;9.072;2022-07-05T09:52:33;25.50;42.00
7736;DHT22;3911;48.830;9.072;2022-07-05T09:55:03;25.50;42.30
7736;DHT22;3911;48.830;9.072;2022-07-05T09:57:29;25.50;42.20
7736;DHT22;3911;48.830;9.072;2022-07-05T10:00:01;25.50;42.70
7736;DHT22;3911;48.830;9.072;2022-07-05T10:02:35;25.50;42.70
7736;DHT22;3911;48.830;9.072;2022-07-05T10:05:09;25.30;40.50
7736;DHT22;3911;48.830;9.072;2022-07-05T10:07:35;25.20;39.90
7736;DHT22;3911;48.830;9.072;2022-07-05T10:10:02;25.20;40.60
7736;DHT22;3911;48.830;9.072;2022-07-05T10:12:29;25.30;40.10
7736;DHT22;3911;48.830;9.072;2022-07-05T10:14:56;25.20;37.60
7736;DHT22;3911;48.830;9.072;2022-07-05T10:17:23;25.20;38.00
7736;DHT22;3911;48.830;9.072;2022-07-05T10:19:50;25.20;38.10
7736;DHT22;3911;48.830;9.072;2022-07-05T10:22:18;25.40;39.70
7736;DHT22;3911;48.830;9.072;2022-07-05T10:24:45;25.30;39.60
7736;DHT22;3911;48.830;9.072;2022-07-05T10:27:11;25.40;40.10
7736;DHT22;3911;48.830;9.072;2022-07-05T10:29:38;25.40;39.60
7736;DHT22;3911;48.830;9.072;2022-07-05T10:32:07;25.40;40.10
7736;DHT22;3911;48.830;9.072;2022-07-05T10:34:33;25.40;40.50
7736;DHT22;3911;48.830;9.072;2022-07-05T10:37:01;25.50;41.80
7736;DHT22;3911;48.830;9.072;2022-07-05T10:39:28;25.40;41.70
7736;DHT22;3911;48.830;9.072;2022-07-05T10:41:55;25.30;38.30
7736;DHT22;3911;48.830;9.072;2022-07-05T10:44:29;25.30;38.20
7736;DHT22;3911;48.830;9.072;2022-07-05T10:46:58;25.30;40.80
7736;DHT22;3911;48.830;9.072;2022-07-05T10:49:21;25.40;40.70
7736;DHT22;3911;48.830;9.072;2022-07-05T10:51:48;25.40;40.60
7736;DHT22;3911;48.830;9.072;2022-07-05T10:54:15;25.40;42.20
7736;DHT22;3911;48.830;9.072;2022-07-05T10:57:05;25.40;41.90
7736;DHT22;3911;48.830;9.072;2022-07-05T10:59:10;25.40;41.10
7736;DHT22;3911;48.830;9.072;2022-07-05T11:01:39;25.40;41.80
7736;DHT22;3911;48.830;9.072;2022-07-05T11:04:21;25.40;41.80
7736;DHT22;3911;48.830;9.072;2022-07-05T11:06:46;25.50;41.80
7736;DHT22;3911;48.830;9.072;2022-07-05T11:09:13;25.50;42.70
7736;DHT22;3911;48.830;9.072;2022-07-05T11:11:42;25.40;40.30
7736;DHT22;3911;48.830;9.072;2022-07-05T11:17:11;25.40;40.30
7736;DHT22;3911;48.830;9.072;2022-07-05T11:22:16;25.40;40.70
7736;DHT22;3911;48.830;9.072;2022-07-05T11:24:43;25.40;40.10
7736;DHT22;3911;48.830;9.072;2022-07-05T11:27:10;25.40;40.40
7736;DHT22;3911;48.830;9.072;2022-07-05T11:29:44;25.40;40.90
7736;DHT22;3911;48.830;9.072;2022-07-05T11:32:12;25.40;41.40
7736;DHT22;3911;48.830;9.072;2022-07-05T11:34:40;25.40;39.00
7736;DHT22;3911;48.830;9.072;2022-07-05T11:37:17;25.40;40.20
7736;DHT22;3911;48.830;9.072;2022-07-05T11:39:47;25.50;41.80
7736;DHT22;3911;48.830;9.072;2022-07-05T11:42:20;25.50;41.80
7736;DHT22;3911;48.830;9.072;2022-07-05T11:44:50;25.50;41.10
7736;DHT22;3911;48.830;9.072;2022-07-05T11:47:16;25.50;41.10
7736;DHT22;3911;48.830;9.072;2022-07-05T11:49:58;25.60;41.50
7736;DHT22;3911;48.830;9.072;2022-07-05T11:52:29;25.60;42.30
7736;DHT22;3911;48.830;9.072;2022-07-05T11:54:54;25.60;41.40
7736;DHT22;3911;48.830;9.072;2022-07-05T11:57:21;25.60;41.60
7736;DHT22;3911;48.830;9.072;2022-07-05T11:59:48;25.70;41.60
7736;DHT22;3911;48.830;9.072;2022-07-05T12:02:15;25.70;42.70
7736;DHT22;3911;48.830;9.072;2022-07-05T12:04:46;25.70;42.70
7736;DHT22;3911;48.830;9.072;2022-07-05T12:07:08;25.90;42.90
7736;DHT22;3911;48.830;9.072;2022-07-05T12:09:35;25.90;42.80
7736;DHT22;3911;48.830;9.072;2022-07-05T12:12:07;25.80;42.90
7736;DHT22;3911;48.830;9.072;2022-07-05T12:14:46;25.80;42.90
7736;DHT22;3911;48.830;9.072;2022-07-05T12:17:15;25.90;42.70
7736;DHT22;3911;48.830;9.072;2022-07-05T12:19:41;25.90;42.70
7736;DHT22;3911;48.830;9.072;2022-07-05T12:22:08;25.90;42.50
7736;DHT22;3911;48.830;9.072;2022-07-05T12:24:35;25.90;42.90
7736;DHT22;3911;48.830;9.072;2022-07-05T12:27:02;25.90;42.90
7736;DHT22;3911;48.830;9.072;2022-07-05T12:29:30;26.10;43.20
7736;DHT22;3911;48.830;9.072;2022-07-05T12:32:00;26.00;43.10
7736;DHT22;3911;48.830;9.072;2022-07-05T12:34:26;26.10;43.10
7736;DHT22;3911;48.830;9.072;2022-07-05T12:36:53;26.10;43.20
7736;DHT22;3911;48.830;9.072;2022-07-05T12:39:21;26.20;43.40
7736;DHT22;3911;48.830;9.072;2022-07-05T12:41:48;26.40;41.40
7736;DHT22;3911;48.830;9.072;2022-07-05T12:44:19;26.40;40.00
7736;DHT22;3911;48.830;9.072;2022-07-05T12:46:46;26.50;39.90
7736;DHT22;3911;48.830;9.072;2022-07-05T12:49:13;26.60;40.90
7736;DHT22;3911;48.830;9.072;2022-07-05T12:51:41;26.60;41.70
7736;DHT22;3911;48.830;9.072;2022-07-05T12:54:07;26.60;41.70
7736;DHT22;3911;48.830;9.072;2022-07-05T12:56:39;26.70;42.00
7736;DHT22;3911;48.830;9.072;2022-07-05T12:59:12;26.70;42.90
7736;DHT22;3911;48.830;9.072;2022-07-05T13:01:40;26.70;42.90
7736;DHT22;3911;48.830;9.072;2022-07-05T13:04:08;26.70;41.80
7736;DHT22;3911;48.830;9.072;2022-07-05T13:06:43;26.80;41.10
7736;DHT22;3911;48.830;9.072;2022-07-05T13:09:09;26.80;41.10
7736;DHT22;3911;48.830;9.072;2022-07-05T13:11:35;26.90;42.10
7736;DHT22;3911;48.830;9.072;2022-07-05T13:14:02;26.90;42.10
7736;DHT22;3911;48.830;9.072;2022-07-05T13:16:29;26.90;42.10
7736;DHT22;3911;48.830;9.072;2022-07-05T13:19:05;27.00;42.90
7736;DHT22;3911;48.830;9.072;2022-07-05T13:21:22;27.00;42.40
7736;DHT22;3911;48.830;9.072;2022-07-05T13:23:49;27.10;42.20
7736;DHT22;3911;48.830;9.072;2022-07-05T13:26:16;27.10;42.20
7736;DHT22;3911;48.830;9.072;2022-07-05T13:28:44;27.20;41.90
7736;DHT22;3911;48.830;9.072;2022-07-05T13:31:10;27.10;41.80
7736;DHT22;3911;48.830;9.072;2022-07-05T13:33:37;27.20;41.80
7736;DHT22;3911;48.830;9.072;2022-07-05T13:36:04;27.40;39.80
7736;DHT22;3911;48.830;9.072;2022-07-05T13:38:32;27.50;38.90
7736;DHT22;3911;48.830;9.072;2022-07-05T13:40:59;27.60;39.90
7736;DHT22;3911;48.830;9.072;2022-07-05T13:43:26;27.60;39.90
7736;DHT22;3911;48.830;9.072;2022-07-05T13:45:52;27.70;39.80
7736;DHT22;3911;48.830;9.072;2022-07-05T13:48:19;27.70;40.60
7736;DHT22;3911;48.830;9.072;2022-07-05T13:50:45;27.60;40.30
7736;DHT22;3911;48.830;9.072;2022-07-05T13:53:12;27.50;40.30
7736;DHT22;3911;48.830;9.072;2022-07-05T13:55:39;27.50;41.30
7736;DHT22;3911;48.830;9.072;2022-07-05T13:58:07;27.40;41.10
7736;DHT22;3911;48.830;9.072;2022-07-05T14:00:34;27.50;41.10
7736;DHT22;3911;48.830;9.072;2022-07-05T14:03:02;27.70;40.70
7736;DHT22;3911;48.830;9.072;2022-07-05T14:05:29;27.80;39.20
7736;DHT22;3911;48.830;9.072;2022-07-05T14:07:56;28.00;39.30
7736;DHT22;3911;48.830;9.072;2022-07-05T14:10:23;28.00;39.30
7736;DHT22;3911;48.830;9.072;2022-07-05T14:12:49;28.00;37.50
7736;DHT22;3911;48.830;9.072;2022-07-05T14:15:16;28.10;39.10
7736;DHT22;3911;48.830;9.072;2022-07-05T14:17:43;28.10;39.10
7736;DHT22;3911;48.830;9.072;2022-07-05T14:20:09;28.00;39.40
7736;DHT22;3911;48.830;9.072;2022-07-05T14:22:36;27.90;39.70
7736;DHT22;3911;48.830;9.072;2022-07-05T14:25:03;27.90;38.80
7736;DHT22;3911;48.830;9.072;2022-07-05T14:27:30;28.00;39.10
7736;DHT22;3911;48.830;9.072;2022-07-05T14:29:57;28.00;39.10
7736;DHT22;3911;48.830;9.072;2022-07-05T14:32:24;28.00;38.80
7736;DHT22;3911;48.830;9.072;2022-07-05T14:34:51;28.00;38.80
7736;DHT22;3911;48.830;9.072;2022-07-05T14:37:17;28.00;38.60
7736;DHT22;3911;48.830;9.072;2022-07-05T14:39:44;28.00;38.70
7736;DHT22;3911;48.830;9.072;2022-07-05T14:42:11;28.00;38.40
7736;DHT22;3911;48.830;9.072;2022-07-05T14:44:39;27.90;38.70
7736;DHT22;3911;48.830;9.072;2022-07-05T14:47:05;27.90;38.60
7736;DHT22;3911;48.830;9.072;2022-07-05T14:49:33;27.90;39.00
7736;DHT22;3911;48.830;9.072;2022-07-05T14:51:59;27.90;39.00
7736;DHT22;3911;48.830;9.072;2022-07-05T14:54:26;27.90;38.90
7736;DHT22;3911;48.830;9.072;2022-07-05T14:56:52;27.80;39.20
7736;DHT22;3911;48.830;9.072;2022-07-05T14:59:19;27.70;39.30
7736;DHT22;3911;48.830;9.072;2022-07-05T15:01:46;27.60;39.40
7736;DHT22;3911;48.830;9.072;2022-07-05T15:04:13;27.60;39.30
7736;DHT22;3911;48.830;9.072;2022-07-05T15:06:40;27.60;39.20
7736;DHT22;3911;48.830;9.072;2022-07-05T15:09:06;27.60;39.30
7736;DHT22;3911;48.830;9.072;2022-07-05T15:11:33;27.30;39.60
7736;DHT22;3911;48.830;9.072;2022-07-05T15:14:00;26.90;40.30
7736;DHT22;3911;48.830;9.072;2022-07-05T15:16:28;27.20;39.90
7736;DHT22;3911;48.830;9.072;2022-07-05T15:18:54;27.20;39.90
7736;DHT22;3911;48.830;9.072;2022-07-05T15:21:22;27.20;40.00
7736;DHT22;3911;48.830;9.072;2022-07-05T15:23:49;27.20;40.20
7736;DHT22;3911;48.830;9.072;2022-07-05T15:26:16;27.20;40.10
7736;DHT22;3911;48.830;9.072;2022-07-05T15:28:42;27.30;39.80
7736;DHT22;3911;48.830;9.072;2022-07-05T15:31:09;27.10;40.40
7736;DHT22;3911;48.830;9.072;2022-07-05T15:33:36;26.80;40.50
7736;DHT22;3911;48.830;9.072;2022-07-05T15:36:03;26.80;40.90
7736;DHT22;3911;48.830;9.072;2022-07-05T15:38:30;26.80;40.90
7736;DHT22;3911;48.830;9.072;2022-07-05T15:40:57;26.80;40.90
7736;DHT22;3911;48.830;9.072;2022-07-05T15:43:24;26.90;40.90
7736;DHT22;3911;48.830;9.072;2022-07-05T15:45:52;26.90;39.00
7736;DHT22;3911;48.830;9.072;2022-07-05T15:48:20;26.90;38.80
7736;DHT22;3911;48.830;9.072;2022-07-05T15:50:47;27.00;39.80
7736;DHT22;3911;48.830;9.072;2022-07-05T15:53:13;27.00;41.10
7736;DHT22;3911;48.830;9.072;2022-07-05T15:55:40;26.90;40.80
7736;DHT22;3911;48.830;9.072;2022-07-05T15:58:06;26.90;40.80
7736;DHT22;3911;48.830;9.072;2022-07-05T16:00:33;26.90;41.10
7736;DHT22;3911;48.830;9.072;2022-07-05T16:03:00;26.90;41.70
7736;DHT22;3911;48.830;9.072;2022-07-05T16:05:28;26.90;40.20
7736;DHT22;3911;48.830;9.072;2022-07-05T16:07:55;26.90;40.50
7736;DHT22;3911;48.830;9.072;2022-07-05T16:10:22;26.90;40.80